Time;durP1;ratioP1;P1;durP2;ratioP2;P2;SDS_P1;SDS_P2;PMS_P1;PMS_P2;Temp;Humidity;BMP_temperature;BMP_pressure;BME280_temperature;BME280_humidity;BME280_pressure;Samples;Min_cycle;Max_cycle;Signal;HPM_P1;HPM_P2
2022/08/15 00:00:17;;;;;;;12.85;7.40;;;22.80;99.60;;;;;;4976907;28;20065;-63
2022/08/15 00:02:47;;;;;;;8.73;7.35;;;22.80;99.90;;;;;;4977928;28;20531;-63
2022/08/15 00:05:18;;;;;;;10.60;7.45;;;22.80;99.90;;;;;;4994711;28;20064;-64
2022/08/15 00:07:45;;;;;;;10.73;7.60;;;22.80;99.90;;;;;;4977281;28;20442;-63
2022/08/15 00:10:12;;;;;;;10.02;7.30;;;22.80;99.90;;;;;;4994631;28;20054;-64
2022/08/15 00:12:41;;;;;;;9.75;7.32;;;22.70;99.90;;;;;;4994727;28;20050;-63
2022/08/15 00:15:11;;;;;;;15.88;7.43;;;22.70;99.90;;;;;;4977039;28;20058;-63
2022/08/15 00:17:39;;;;;;;10.57;7.95;;;22.70;99.90;;;;;;4977083;28;20065;-63
2022/08/15 00:20:09;;;;;;;10.75;8.30;;;22.60;99.90;;;;;;4976710;28;20092;-63
2022/08/15 00:22:43;;;;;;;8.40;7.50;;;22.60;99.90;;;;;;4994571;28;20043;-63
2022/08/15 00:25:10;;;;;;;9.88;8.25;;;22.60;99.90;;;;;;4994537;28;20086;-63
2022/08/15 00:27:37;;;;;;;10.98;8.63;;;22.60;99.90;;;;;;4993344;28;20074;-63
2022/08/15 00:30:05;;;;;;;10.23;7.32;;;22.60;99.90;;;;;;4994640;28;20112;-64
2022/08/15 00:32:34;;;;;;;11.60;8.25;;;22.60;99.90;;;;;;4993410;28;20132;-62
2022/08/15 00:35:01;;;;;;;9.07;7.45;;;22.50;99.90;;;;;;4975816;28;20552;-63
2022/08/15 00:37:29;;;;;;;10.40;7.90;;;22.50;99.90;;;;;;4993757;28;20370;-63
2022/08/15 00:39:57;;;;;;;9.85;8.18;;;22.50;99.90;;;;;;4994191;28;20050;-63
2022/08/15 00:42:23;;;;;;;15.82;8.00;;;22.50;99.90;;;;;;4993294;28;20103;-63
2022/08/15 00:44:50;;;;;;;9.43;7.53;;;22.50;99.90;;;;;;4976660;28;20050;-64
2022/08/15 00:47:20;;;;;;;9.02;7.50;;;22.50;99.90;;;;;;4993899;28;20050;-63
2022/08/15 00:49:48;;;;;;;10.07;8.40;;;22.50;99.90;;;;;;4993210;28;20042;-63
2022/08/15 00:52:20;;;;;;;8.90;7.78;;;22.50;99.90;;;;;;4976848;28;20498;-63
2022/08/15 00:54:51;;;;;;;10.55;7.97;;;22.40;99.90;;;;;;4993740;28;20079;-63
2022/08/15 00:57:22;;;;;;;8.88;7.97;;;22.40;99.90;;;;;;4993377;28;20167;-63
2022/08/15 00:59:53;;;;;;;9.93;7.90;;;22.40;99.90;;;;;;4993982;28;20092;-63
2022/08/15 01:02:23;;;;;;;9.30;8.18;;;22.30;99.90;;;;;;4993144;28;20178;-63
2022/08/15 01:04:50;;;;;;;;;;;22.30;99.90;;;;;;4977034;28;20101;-63
2022/08/15 01:07:17;;;;;;;10.10;8.80;;;22.30;99.90;;;;;;4994004;28;19968;-63
2022/08/15 01:09:44;;;;;;;9.48;8.40;;;22.20;99.90;;;;;;4975333;28;20553;-63
2022/08/15 01:12:16;;;;;;;11.73;8.55;;;22.20;99.90;;;;;;4994091;28;20078;-64
2022/08/15 01:14:48;;;;;;;12.43;8.77;;;22.20;99.90;;;;;;4993718;28;20494;-62
2022/08/15 01:17:16;;;;;;;9.82;8.02;;;22.10;99.90;;;;;;4975515;28;20153;-63
2022/08/15 01:19:46;;;;;;;12.50;8.30;;;22.10;99.90;;;;;;4993554;28;20046;-63
2022/08/15 01:22:42;;;;;;;13.00;8.20;;;22.10;99.90;;;;;;4976118;28;20062;-63
2022/08/15 01:25:16;;;;;;;10.07;7.22;;;22.10;99.90;;;;;;4992967;28;20050;-62
2022/08/15 01:27:47;;;;;;;12.27;8.57;;;22.10;99.90;;;;;;4993552;28;20131;-64
2022/08/15 01:30:18;;;;;;;10.63;8.23;;;22.10;99.90;;;;;;4993424;28;20043;-63
2022/08/15 01:32:46;;;;;;;13.85;9.45;;;22.10;99.90;;;;;;4993555;28;20058;-63
2022/08/15 01:35:14;;;;;;;10.95;8.45;;;22.10;99.90;;;;;;4993603;28;20050;-63
2022/08/15 01:37:42;;;;;;;12.02;8.82;;;22.10;99.90;;;;;;4974785;28;20450;-64
2022/08/15 01:40:20;;;;;;;11.77;8.80;;;22.10;99.90;;;;;;4975796;28;20052;-63
2022/08/15 01:42:50;;;;;;;10.40;8.45;;;22.10;99.90;;;;;;4976271;28;20058;-64
2022/08/15 01:45:21;;;;;;;12.73;8.88;;;22.00;99.90;;;;;;4975245;28;20065;-63
2022/08/15 01:47:51;;;;;;;13.85;9.13;;;22.10;99.90;;;;;;4976013;28;20066;-63
2022/08/15 01:50:22;;;;;;;12.00;8.57;;;22.00;99.90;;;;;;4975801;28;20051;-63
2022/08/15 01:52:52;;;;;;;10.45;8.55;;;22.00;99.90;;;;;;4987188;28;20051;-64
2022/08/15 01:55:25;;;;;;;11.65;9.55;;;22.00;99.90;;;;;;4974026;28;20051;-63
2022/08/15 01:57:52;;;;;;;11.27;8.52;;;22.10;99.90;;;;;;4958989;28;20161;-64
2022/08/15 02:00:21;;;;;;;11.18;9.30;;;22.10;99.90;;;;;;4960844;28;20085;-62
2022/08/15 02:02:48;;;;;;;10.43;9.15;;;22.10;99.90;;;;;;4960450;28;20110;-63
2022/08/15 02:05:16;;;;;;;10.32;8.60;;;22.20;99.90;;;;;;4977638;28;20163;-64
2022/08/15 02:07:43;;;;;;;11.45;9.40;;;22.20;99.90;;;;;;4978988;28;20086;-63
2022/08/15 02:10:10;;;;;;;9.40;8.07;;;22.30;99.90;;;;;;4997183;28;20092;-63
2022/08/15 02:12:40;;;;;;;12.27;9.32;;;22.30;99.90;;;;;;4996237;28;20054;-63
2022/08/15 02:15:13;;;;;;;10.98;8.75;;;22.30;99.90;;;;;;4997462;28;20069;-64
2022/08/15 02:17:40;;;;;;;9.85;8.75;;;22.20;99.90;;;;;;4979613;28;20421;-63
2022/08/15 02:20:09;;;;;;;12.88;9.00;;;22.40;99.90;;;;;;4996005;28;20096;-63
2022/08/15 02:22:36;;;;;;;10.65;8.48;;;22.40;99.90;;;;;;4996850;28;20138;-63
2022/08/15 02:25:06;;;;;;;12.43;9.32;;;22.40;99.90;;;;;;4979310;28;20116;-63
2022/08/15 02:27:35;;;;;;;12.02;9.65;;;22.40;99.90;;;;;;4978558;28;20054;-64
2022/08/15 02:30:09;;;;;;;12.40;8.68;;;22.30;99.90;;;;;;4997002;28;20474;-63
2022/08/15 02:32:39;;;;;;;14.00;8.10;;;22.40;99.90;;;;;;4996489;28;20101;-63
2022/08/15 02:35:08;;;;;;;13.27;9.00;;;22.30;99.90;;;;;;4975434;28;20059;-63
2022/08/15 02:37:35;;;;;;;13.35;8.60;;;22.40;99.90;;;;;;4978443;28;20495;-64
2022/08/15 02:40:01;;;;;;;11.60;8.68;;;22.40;99.90;;;;;;4996342;28;20046;-63
2022/08/15 02:42:28;;;;;;;11.35;8.52;;;22.30;99.90;;;;;;4977936;28;20065;-63
2022/08/15 02:44:56;;;;;;;10.90;8.63;;;22.30;99.90;;;;;;4996576;28;20050;-62
2022/08/15 02:47:24;;;;;;;11.90;9.07;;;22.30;99.90;;;;;;4996431;28;20494;-63
2022/08/15 02:49:52;;;;;;;10.50;8.90;;;22.30;99.90;;;;;;4995667;28;20564;-64
2022/08/15 02:52:19;;;;;;;13.00;9.25;;;22.20;99.90;;;;;;4996121;28;20061;-63
2022/08/15 02:54:46;;;;;;;13.45;10.10;;;22.20;99.90;;;;;;4995369;28;20046;-63
2022/08/15 02:57:13;;;;;;;12.98;9.40;;;22.20;99.90;;;;;;4996419;28;20047;-64
2022/08/15 02:59:40;;;;;;;14.00;10.98;;;22.20;99.90;;;;;;4995808;28;20127;-62
2022/08/15 03:02:07;;;;;;;12.38;10.07;;;22.20;99.90;;;;;;4995527;28;20241;-63
2022/08/15 03:04:36;;;;;;;10.73;9.50;;;22.20;99.90;;;;;;4996143;28;20546;-63
2022/08/15 03:07:04;;;;;;;10.93;9.68;;;22.20;99.90;;;;;;4978200;28;20050;-64
2022/08/15 03:09:30;;;;;;;16.52;10.23;;;22.20;99.90;;;;;;4977827;28;20054;-63
2022/08/15 03:11:59;;;;;;;13.85;10.63;;;22.20;99.90;;;;;;4996065;28;20105;-64
2022/08/15 03:14:26;;;;;;;11.70;10.15;;;22.20;99.90;;;;;;4996073;28;20050;-63
2022/08/15 03:16:53;;;;;;;11.38;10.18;;;22.30;99.90;;;;;;4995083;28;20054;-64
2022/08/15 03:19:25;;;;;;;10.65;9.32;;;22.30;99.90;;;;;;4995509;28;20458;-62
2022/08/15 03:21:53;;;;;;;13.50;10.15;;;22.30;99.90;;;;;;4977903;28;20065;-63
2022/08/15 03:24:22;;;;;;;12.00;9.70;;;22.20;99.90;;;;;;4977678;28;20125;-64
2022/08/15 03:26:50;;;;;;;13.43;10.80;;;22.30;99.90;;;;;;4978488;28;20054;-63
2022/08/15 03:29:19;;;;;;;12.10;10.63;;;22.20;99.90;;;;;;4995090;28;20050;-63
2022/08/15 03:31:48;;;;;;;10.60;9.50;;;22.20;99.90;;;;;;4995109;28;20060;-63
2022/08/15 03:34:16;;;;;;;14.27;10.40;;;22.20;99.90;;;;;;4995576;28;20585;-63
2022/08/15 03:36:46;;;;;;;13.77;10.80;;;22.20;99.90;;;;;;4995177;28;20458;-63
2022/08/15 03:39:14;;;;;;;12.77;10.02;;;22.10;99.90;;;;;;4994694;28;20047;-63
2022/08/15 03:41:41;;;;;;;11.82;9.93;;;22.10;99.90;;;;;;4995611;28;20077;-64
2022/08/15 03:44:08;;;;;;;15.95;10.45;;;22.10;99.90;;;;;;4977375;28;20058;-64
2022/08/15 03:46:35;;;;;;;12.75;9.63;;;22.00;99.90;;;;;;4995331;28;20055;-63
2022/08/15 03:49:02;;;;;;;14.20;10.18;;;22.00;99.90;;;;;;4977921;28;20100;-63
2022/08/15 03:51:29;;;;;;;12.40;10.88;;;21.90;99.90;;;;;;4994467;28;20106;-63
2022/08/15 03:53:59;;;;;;;15.60;10.05;;;21.90;99.90;;;;;;4995325;28;20054;-63
2022/08/15 03:56:31;;;;;;;13.73;10.80;;;21.90;99.90;;;;;;4977911;28;20056;-63
2022/08/15 03:58:59;;;;;;;12.82;11.05;;;21.80;99.90;;;;;;4976572;28;20108;-64
2022/08/15 04:01:29;;;;;;;14.40;10.88;;;21.80;99.90;;;;;;4977160;28;20062;-64
2022/08/15 04:03:56;;;;;;;13.10;10.98;;;21.80;99.90;;;;;;4977356;28;20098;-63
2022/08/15 04:06:25;;;;;;;12.52;10.15;;;21.80;99.90;;;;;;4993829;28;20092;-63
2022/08/15 04:08:54;;;;;;;10.73;9.23;;;21.70;99.90;;;;;;4994759;28;20051;-63
2022/08/15 04:11:23;;;;;;;23.98;11.60;;;21.70;99.90;;;;;;4977580;28;20058;-63
2022/08/15 04:13:53;;;;;;;12.52;10.07;;;21.70;99.90;;;;;;4976864;28;20525;-64
2022/08/15 04:16:20;;;;;;;15.70;10.23;;;21.70;99.90;;;;;;4977845;28;20054;-63
2022/08/15 04:18:47;;;;;;;11.75;9.82;;;21.70;99.90;;;;;;4976731;28;20051;-63
2022/08/15 04:21:15;;;;;;;11.48;9.90;;;21.70;99.90;;;;;;4993417;28;20109;-63
2022/08/15 04:23:44;;;;;;;11.52;10.23;;;21.70;99.90;;;;;;4977241;28;20082;-63
2022/08/15 04:26:11;;;;;;;11.33;9.50;;;21.60;99.90;;;;;;4976690;28;20387;-63
2022/08/15 04:28:38;;;;;;;12.95;10.40;;;21.60;99.90;;;;;;4994454;28;20297;-63
2022/08/15 04:31:09;;;;;;;12.57;10.00;;;21.60;99.90;;;;;;4994651;28;20109;-63
2022/08/15 04:33:36;;;;;;;14.48;10.75;;;21.50;99.90;;;;;;4975394;28;20144;-64
2022/08/15 04:36:09;;;;;;;14.95;11.55;;;21.50;99.90;;;;;;4975434;28;20051;-65
2022/08/15 04:38:36;;;;;;;15.95;10.85;;;21.50;99.90;;;;;;4957314;28;20058;-63
2022/08/15 04:41:04;;;;;;;15.98;10.93;;;21.40;99.90;;;;;;4974004;28;20459;-64
2022/08/15 04:43:33;;;;;;;18.63;12.15;;;21.40;99.90;;;;;;4974759;28;20086;-63
2022/08/15 04:46:00;;;;;;;17.67;10.85;;;21.40;99.90;;;;;;4974239;28;20514;-63
2022/08/15 04:48:28;;;;;;;58.70;15.98;;;21.40;99.90;;;;;;4978726;28;20104;-62
2022/08/15 04:50:58;;;;;;;46.65;14.15;;;21.60;99.90;;;;;;4959872;28;20054;-63
2022/08/15 04:53:29;;;;;;;25.98;12.68;;;21.60;99.90;;;;;;4973366;28;20050;-63
2022/08/15 04:55:56;;;;;;;26.63;12.57;;;21.60;99.90;;;;;;4972005;28;20058;-63
2022/08/15 04:58:24;;;;;;;20.63;12.30;;;21.70;99.90;;;;;;4979957;28;20070;-63
2022/08/15 05:00:58;;;;;;;16.23;11.75;;;21.70;99.90;;;;;;4985248;28;20121;-63
2022/08/15 05:03:26;;;;;;;14.10;11.45;;;21.90;99.90;;;;;;4987135;28;20077;-64
2022/08/15 05:05:56;;;;;;;15.07;11.15;;;21.90;99.90;;;;;;4972034;28;20518;-63
2022/08/15 05:08:26;;;;;;;17.77;11.82;;;22.00;99.90;;;;;;4986473;28;20058;-63
2022/08/15 05:10:57;;;;;;;14.45;11.73;;;22.10;99.90;;;;;;4986021;28;20046;-63
2022/08/15 05:13:25;;;;;;;;;;;22.00;99.90;;;;;;4986527;28;20046;-64
2022/08/15 05:15:53;;;;;;;17.20;11.27;;;22.10;99.90;;;;;;4984183;28;19948;-64
2022/08/15 05:18:21;;;;;;;17.17;11.77;;;22.10;99.90;;;;;;4987399;28;20117;-63
2022/08/15 05:20:47;;;;;;;16.38;11.15;;;22.10;99.90;;;;;;4986062;28;20047;-63
2022/08/15 05:23:17;;;;;;;15.80;11.65;;;22.30;99.90;;;;;;4983978;28;20050;-63
2022/08/15 05:25:46;;;;;;;15.67;11.10;;;22.30;99.90;;;;;;4984675;28;20152;-63
2022/08/15 05:28:14;;;;;;;12.93;11.07;;;22.40;99.90;;;;;;4986620;28;20627;-62
2022/08/15 05:30:41;;;;;;;14.38;11.30;;;22.40;99.90;;;;;;4969640;28;20105;-63
2022/08/15 05:33:11;;;;;;;16.73;12.05;;;22.50;99.90;;;;;;4986574;28;20050;-63
2022/08/15 05:35:41;;;;;;;18.88;11.70;;;22.60;99.90;;;;;;4987275;28;20050;-63
2022/08/15 05:38:11;;;;;;;23.50;13.05;;;22.60;99.90;;;;;;4986560;28;20415;-64
2022/08/15 05:40:49;;;;;;;14.95;11.73;;;22.70;99.90;;;;;;4984486;28;20576;-63
2022/08/15 05:43:24;;;;;;;15.15;11.65;;;22.70;99.90;;;;;;4983963;28;20151;-63
2022/08/15 05:45:58;;;;;;;13.98;12.40;;;22.70;99.90;;;;;;4972373;28;20069;-63
2022/08/15 05:48:31;;;;;;;16.15;12.05;;;22.80;99.90;;;;;;4987394;28;20043;-62
2022/08/15 05:51:07;;;;;;;15.32;11.02;;;22.90;99.90;;;;;;4978977;28;20153;-62
2022/08/15 05:53:47;;;;;;;13.57;11.70;;;23.00;99.90;;;;;;4964684;28;20062;-63
2022/08/15 05:56:23;;;;;;;13.90;12.27;;;23.10;99.90;;;;;;4983673;28;20104;-62
2022/08/15 05:58:55;;;;;;;14.73;11.32;;;23.30;99.90;;;;;;4988000;28;20090;-63
2022/08/15 06:01:28;;;;;;;13.48;11.95;;;23.40;99.90;;;;;;4983224;28;20053;-63
2022/08/15 06:04:02;;;;;;;15.68;12.23;;;23.40;99.90;;;;;;4981951;28;20208;-63
2022/08/15 06:06:33;;;;;;;14.85;11.88;;;23.50;99.90;;;;;;4984702;28;20058;-62
2022/08/15 06:09:07;;;;;;;15.40;11.63;;;23.60;99.90;;;;;;4984878;28;20237;-62
2022/08/15 06:11:41;;;;;;;14.95;12.00;;;23.60;99.90;;;;;;4990706;28;20054;-63
2022/08/15 06:14:20;;;;;;;18.90;11.52;;;23.70;99.90;;;;;;4983158;28;20074;-63
2022/08/15 06:16:52;;;;;;;12.50;10.60;;;23.70;99.90;;;;;;4982138;28;20046;-62
2022/08/15 06:19:23;;;;;;;15.52;11.40;;;23.70;99.90;;;;;;4970991;28;20089;-63
2022/08/15 06:21:58;;;;;;;12.77;10.57;;;23.80;99.90;;;;;;4983989;28;20047;-62
2022/08/15 06:24:32;;;;;;;12.93;10.63;;;23.90;99.90;;;;;;4979903;28;20097;-63
2022/08/15 06:27:10;;;;;;;20.63;11.65;;;24.00;99.90;;;;;;4982136;28;20388;-62
2022/08/15 06:29:59;;;;;;;11.52;9.63;;;24.10;99.90;;;;;;4989279;28;20113;-62
2022/08/15 06:32:34;;;;;;;14.37;10.80;;;24.30;99.70;;;;;;4967484;28;20050;-62
2022/08/15 06:35:09;;;;;;;11.27;9.75;;;24.40;99.50;;;;;;4984269;28;20054;-61
2022/08/15 06:37:44;;;;;;;14.02;9.98;;;24.70;98.90;;;;;;4984053;28;20125;-62
2022/08/15 06:40:20;;;;;;;13.27;10.20;;;25.30;97.70;;;;;;4980690;28;20128;-62
2022/08/15 06:42:48;;;;;;;11.70;8.88;;;26.10;96.20;;;;;;4984090;28;20406;-62
2022/08/15 06:45:20;;;;;;;10.85;9.07;;;26.80;94.70;;;;;;4973532;28;20050;-63
2022/08/15 06:47:49;;;;;;;12.70;10.60;;;27.20;93.30;;;;;;4967738;28;20073;-62
2022/08/15 06:50:20;;;;;;;12.13;10.00;;;27.40;92.80;;;;;;4987267;28;20124;-63
2022/08/15 06:52:54;;;;;;;11.02;9.23;;;27.60;92.20;;;;;;4988278;28;20074;-64
2022/08/15 06:55:23;;;;;;;11.27;9.63;;;28.20;91.70;;;;;;4970306;28;20058;-62
2022/08/15 06:58:01;;;;;;;11.85;9.57;;;28.60;90.90;;;;;;4987615;28;20078;-63
2022/08/15 07:00:34;;;;;;;13.70;10.13;;;29.20;89.40;;;;;;4989209;28;20154;-63
2022/08/15 07:03:11;;;;;;;15.93;9.95;;;29.40;89.20;;;;;;4987279;28;20116;-63
2022/08/15 07:05:45;;;;;;;9.98;8.95;;;29.80;87.40;;;;;;4990696;28;20498;-63
2022/08/15 07:08:18;;;;;;;11.13;8.73;;;29.90;86.10;;;;;;4987458;28;20077;-62
2022/08/15 07:10:51;;;;;;;10.00;8.88;;;29.90;86.70;;;;;;4988016;28;20205;-63
2022/08/15 07:13:24;;;;;;;10.35;9.00;;;29.70;86.50;;;;;;4987041;28;20042;-63
2022/08/15 07:15:56;;;;;;;13.20;9.68;;;29.20;86.60;;;;;;4987631;28;20110;-62
2022/08/15 07:18:34;;;;;;;10.27;9.18;;;28.70;88.10;;;;;;4973274;28;20050;-63
2022/08/15 07:21:03;;;;;;;12.63;9.40;;;28.30;88.00;;;;;;4985695;28;20049;-62
2022/08/15 07:23:31;;;;;;;;;;;28.10;89.50;;;;;;4985498;28;20494;-62
2022/08/15 07:26:02;;;;;;;12.20;9.63;;;27.90;89.50;;;;;;4967376;28;20453;-62
2022/08/15 07:28:33;;;;;;;12.63;9.05;;;27.70;90.10;;;;;;4964726;28;20141;-62
2022/08/15 07:31:08;;;;;;;10.98;9.20;;;27.50;90.20;;;;;;4970130;28;20385;-62
2022/08/15 07:33:40;;;;;;;13.80;10.05;;;27.30;90.80;;;;;;4967785;28;20055;-63
2022/08/15 07:36:15;;;;;;;13.13;10.10;;;27.10;90.60;;;;;;4946717;28;20081;-63
2022/08/15 07:38:43;;;;;;;15.07;10.43;;;27.00;90.90;;;;;;4966097;28;20106;-63
2022/08/15 07:41:22;;;;;;;10.95;9.85;;;26.90;91.00;;;;;;4965888;28;20521;-63
2022/08/15 07:43:52;;;;;;;13.82;10.30;;;26.90;91.20;;;;;;4970081;28;20402;-63
2022/08/15 07:46:23;;;;;;;16.50;11.02;;;26.80;91.40;;;;;;4968379;28;20474;-63
2022/08/15 07:48:58;;;;;;;10.50;9.40;;;26.60;91.50;;;;;;4968020;28;20138;-63
2022/08/15 07:51:28;;;;;;;11.95;10.15;;;26.80;91.80;;;;;;4948542;28;20055;-62
2022/08/15 07:53:59;;;;;;;11.90;10.02;;;26.80;91.80;;;;;;4966580;28;20051;-62
2022/08/15 07:56:27;;;;;;;12.40;10.48;;;26.80;91.70;;;;;;4949256;28;20071;-62
2022/08/15 07:59:10;;;;;;;11.75;9.73;;;26.80;91.70;;;;;;4954522;28;20092;-62
2022/08/15 08:01:38;;;;;;;11.57;10.27;;;26.80;91.60;;;;;;4966115;28;20507;-62
2022/08/15 08:04:10;;;;;;;11.02;9.43;;;26.70;91.80;;;;;;4949729;28;20134;-62
2022/08/15 08:06:43;;;;;;;12.32;9.35;;;26.80;91.60;;;;;;4946465;28;20380;-63
2022/08/15 08:09:19;;;;;;;12.30;10.10;;;26.90;91.50;;;;;;4952437;28;20082;-63
2022/08/15 08:11:54;;;;;;;10.88;9.75;;;27.00;91.50;;;;;;4969276;28;20118;-63
2022/08/15 08:14:39;;;;;;;11.13;9.23;;;27.20;91.30;;;;;;4968309;28;20125;-62
2022/08/15 08:17:13;;;;;;;13.02;10.45;;;27.80;90.70;;;;;;4951288;28;20087;-62
2022/08/15 08:19:57;;;;;;;12.00;9.52;;;28.40;89.90;;;;;;4967132;28;20517;-62
2022/08/15 08:22:37;;;;;;;11.10;8.98;;;28.70;88.70;;;;;;4966753;28;20098;-63
2022/08/15 08:25:10;;;;;;;10.40;9.30;;;29.30;87.90;;;;;;4966196;28;20051;-63
2022/08/15 08:27:44;;;;;;;13.98;8.95;;;30.10;86.50;;;;;;4964673;28;20091;-63
2022/08/15 08:30:17;;;;;;;8.90;7.85;;;30.70;83.60;;;;;;4965939;28;20501;-62
2022/08/15 08:32:56;;;;;;;9.00;7.97;;;30.80;82.90;;;;;;4948131;28;20061;-64
2022/08/15 08:35:34;;;;;;;10.03;7.70;;;30.70;80.90;;;;;;4967106;28;20043;-63
2022/08/15 08:38:11;;;;;;;10.55;7.85;;;30.50;81.50;;;;;;4945974;28;20062;-63
2022/08/15 08:43:42;;;;;;;10.43;7.13;;;30.30;82.80;;;;;;4963390;28;20042;-63
2022/08/15 08:46:23;;;;;;;11.98;8.55;;;30.60;82.90;;;;;;4963153;28;20130;-63
2022/08/15 08:49:01;;;;;;;9.10;8.05;;;30.80;81.90;;;;;;4964250;28;20580;-63
2022/08/15 08:51:35;;;;;;;9.13;7.22;;;31.00;81.10;;;;;;4947347;28;20106;-62
2022/08/15 08:54:07;;;;;;;7.35;6.65;;;31.00;80.90;;;;;;4949293;28;20090;-62
2022/08/15 08:56:38;;;;;;;8.45;5.93;;;31.00;80.30;;;;;;4966794;28;20057;-63
2022/08/15 08:59:17;;;;;;;7.75;5.47;;;31.00;79.60;;;;;;4966798;28;20117;-63
2022/08/15 09:01:49;;;;;;;5.45;4.80;;;31.00;78.70;;;;;;4965865;28;20077;-62
2022/08/15 09:04:19;;;;;;;6.78;5.45;;;30.90;78.30;;;;;;4965695;28;20055;-63
2022/08/15 09:06:49;;;;;;;6.28;5.50;;;30.80;78.70;;;;;;4963937;28;20124;-63
2022/08/15 09:09:31;;;;;;;8.55;5.57;;;30.80;78.90;;;;;;4965197;28;20059;-63
2022/08/15 09:12:03;;;;;;;6.72;5.50;;;30.80;78.40;;;;;;4964947;28;20105;-62
2022/08/15 09:14:33;;;;;;;6.50;5.18;;;30.60;78.10;;;;;;4948519;28;20062;-62
2022/08/15 09:17:06;;;;;;;7.07;5.53;;;30.40;78.20;;;;;;4970253;28;20523;-63
2022/08/15 09:19:47;;;;;;;7.97;6.20;;;30.30;78.00;;;;;;4966254;28;20388;-63
2022/08/15 09:22:14;;;;;;;7.93;5.35;;;30.20;78.00;;;;;;4964249;28;20093;-63
2022/08/15 09:24:42;;;;;;;8.05;5.63;;;30.20;78.40;;;;;;4974557;28;20061;-63
2022/08/15 09:27:16;;;;;;;9.35;5.50;;;30.30;78.50;;;;;;4966809;28;20455;-63
2022/08/15 09:29:47;;;;;;;7.78;5.97;;;30.50;78.30;;;;;;4974179;28;20081;-63
2022/08/15 09:32:31;;;;;;;8.82;5.60;;;30.70;77.60;;;;;;4986327;28;20104;-62
2022/08/15 09:35:22;;;;;;;7.35;6.00;;;30.70;77.60;;;;;;4985396;28;20078;-63
2022/08/15 09:38:19;;;;;;;7.15;4.88;;;30.70;77.80;;;;;;4985872;28;20108;-62
2022/08/15 09:41:11;;;;;;;8.52;5.25;;;30.50;76.50;;;;;;4986307;28;20057;-61
2022/08/15 09:44:00;;;;;;;6.22;5.63;;;30.70;77.10;;;;;;4951624;28;20093;-70
2022/08/15 09:46:52;;;;;;;6.00;5.30;;;30.80;76.90;;;;;;4968823;28;20080;-71
2022/08/15 09:49:42;;;;;;;6.00;5.40;;;31.20;76.50;;;;;;4984433;28;20082;-63
2022/08/15 09:52:22;;;;;;;7.70;5.25;;;31.50;75.80;;;;;;4982407;28;20402;-63
2022/08/15 09:54:54;;;;;;;8.65;5.90;;;31.90;75.70;;;;;;4984736;28;20387;-62
2022/08/15 09:57:31;;;;;;;7.05;5.75;;;32.20;75.10;;;;;;4983954;28;20050;-63
2022/08/15 10:00:01;;;;;;;7.65;5.30;;;32.40;74.80;;;;;;4986616;28;20046;-63
2022/08/15 10:02:32;;;;;;;5.50;4.82;;;32.30;74.30;;;;;;4983525;28;20046;-63
2022/08/15 10:05:14;;;;;;;7.38;5.10;;;32.40;74.40;;;;;;4985451;28;20053;-63
2022/08/15 10:07:49;;;;;;;7.72;5.43;;;32.50;74.20;;;;;;4985719;28;20414;-63
2022/08/15 10:10:20;;;;;;;5.95;5.00;;;32.80;73.40;;;;;;4984657;28;20499;-63
2022/08/15 10:13:10;;;;;;;6.82;5.10;;;33.30;73.40;;;;;;4988795;28;20085;-63
2022/08/15 10:15:40;;;;;;;;;;;33.50;71.80;;;;;;4971852;28;20467;-63
2022/08/15 10:18:08;;;;;;;5.28;4.43;;;33.70;71.50;;;;;;4986605;28;19921;-63
2022/08/15 10:21:02;;;;;;;8.30;4.68;;;34.50;72.10;;;;;;4973331;28;20615;-63
2022/08/15 10:23:41;;;;;;;7.07;4.47;;;35.40;70.30;;;;;;4987787;28;20046;-63
2022/08/15 10:26:15;;;;;;;8.63;5.63;;;35.60;69.20;;;;;;4986292;28;20497;-63
2022/08/15 10:29:02;;;;;;;5.85;4.60;;;35.30;68.60;;;;;;4970196;28;20054;-63
2022/08/15 10:31:30;;;;;;;8.45;5.03;;;34.80;68.10;;;;;;4970095;28;20456;-63
2022/08/15 10:34:02;;;;;;;6.28;5.47;;;34.50;69.20;;;;;;4989644;28;20073;-63
2022/08/15 10:36:35;;;;;;;8.55;5.72;;;34.20;69.20;;;;;;4987524;28;20050;-63
2022/08/15 10:39:19;;;;;;;7.75;5.30;;;33.90;69.60;;;;;;4987506;28;20085;-64
2022/08/15 10:42:01;;;;;;;6.18;5.40;;;33.60;69.30;;;;;;4972110;28;20137;-63
2022/08/15 10:44:42;;;;;;;6.25;5.30;;;33.30;68.50;;;;;;4972501;28;20517;-63
2022/08/15 10:47:17;;;;;;;8.50;6.18;;;33.10;69.40;;;;;;4988498;28;20050;-63
2022/08/15 10:49:55;;;;;;;8.27;5.57;;;33.00;70.00;;;;;;4986117;28;20129;-63
2022/08/15 10:52:34;;;;;;;7.65;5.68;;;32.70;69.10;;;;;;4969147;28;20050;-63
2022/08/15 10:55:32;;;;;;;7.97;5.82;;;32.50;68.20;;;;;;4968887;28;20050;-63
2022/08/15 10:58:01;;;;;;;12.13;5.47;;;32.30;69.30;;;;;;4976538;28;20130;-64
2022/08/15 11:00:41;;;;;;;9.77;6.57;;;32.10;70.20;;;;;;4988185;28;20603;-63
2022/08/15 11:03:16;;;;;;;12.07;6.70;;;32.10;71.40;;;;;;4988470;28;20093;-62
2022/08/15 11:05:43;;;;;;;10.18;7.80;;;32.10;72.20;;;;;;4988398;28;20051;-62
2022/08/15 11:08:17;;;;;;;10.45;8.40;;;32.00;73.10;;;;;;4984791;28;20417;-62
2022/08/15 11:10:45;;;;;;;11.20;9.32;;;31.70;73.90;;;;;;4986596;28;20421;-63
2022/08/15 11:13:16;;;;;;;9.77;8.75;;;31.50;74.40;;;;;;4969618;28;20042;-63
2022/08/15 11:15:54;;;;;;;10.60;9.43;;;31.30;75.00;;;;;;4967753;28;20105;-62
2022/08/15 11:18:27;;;;;;;11.32;10.10;;;31.20;75.70;;;;;;4990434;28;20056;-62
2022/08/15 11:21:14;;;;;;;11.02;9.20;;;30.80;76.50;;;;;;4986575;28;20054;-62
2022/08/15 11:23:42;;;;;;;11.73;9.02;;;30.30;76.90;;;;;;4983215;28;20061;-63
2022/08/15 11:26:13;;;;;;;13.03;8.97;;;29.90;78.20;;;;;;4967007;28;20055;-63
2022/08/15 11:28:41;;;;;;;14.82;10.07;;;29.50;79.60;;;;;;4967608;28;20458;-63
2022/08/15 11:31:16;;;;;;;12.45;9.52;;;29.20;79.90;;;;;;4964603;28;20084;-64
2022/08/15 11:33:45;;;;;;;11.57;10.18;;;29.10;81.00;;;;;;4972875;28;20075;-63
2022/08/15 11:36:15;;;;;;;11.50;10.00;;;28.70;81.40;;;;;;4967013;28;20055;-62
2022/08/15 11:38:48;;;;;;;12.10;10.23;;;28.60;81.90;;;;;;4950557;28;20759;-63
2022/08/15 11:41:22;;;;;;;10.63;9.50;;;28.40;82.90;;;;;;4967805;28;20039;-63
2022/08/15 11:43:51;;;;;;;10.80;9.70;;;28.20;83.50;;;;;;4954778;28;20097;-63
2022/08/15 11:46:19;;;;;;;12.95;10.43;;;28.10;83.70;;;;;;4971841;28;20134;-63
2022/08/15 11:48:50;;;;;;;11.68;9.40;;;28.00;84.20;;;;;;4950694;28;20055;-62
2022/08/15 11:51:26;;;;;;;11.13;9.70;;;27.80;85.00;;;;;;4950393;28;20577;-62
2022/08/15 11:54:23;;;;;;;11.80;10.57;;;27.60;86.60;;;;;;4970190;28;20050;-63
2022/08/15 11:56:55;;;;;;;12.35;10.45;;;27.30;88.60;;;;;;4966611;28;20047;-62
2022/08/15 11:59:25;;;;;;;17.75;10.82;;;27.10;90.00;;;;;;4969587;28;20046;-62
2022/08/15 12:02:28;;;;;;;20.63;11.40;;;26.90;90.50;;;;;;4966748;28;20134;-62
2022/08/15 12:04:54;;;;;;;13.20;11.15;;;26.80;91.70;;;;;;4969399;28;20047;-63
2022/08/15 12:07:25;;;;;;;13.57;10.90;;;26.60;91.80;;;;;;4955748;28;20455;-63
2022/08/15 12:09:57;;;;;;;12.38;10.32;;;26.40;92.70;;;;;;4966952;28;20419;-63
2022/08/15 12:12:32;;;;;;;13.68;10.85;;;26.30;93.00;;;;;;4972904;28;20574;-63
2022/08/15 12:15:07;;;;;;;14.65;10.40;;;26.10;95.80;;;;;;4949168;28;20466;-63
2022/08/15 12:17:34;;;;;;;12.45;10.57;;;26.00;96.80;;;;;;4950997;28;20086;-63
2022/08/15 12:20:04;;;;;;;10.50;9.30;;;26.00;97.30;;;;;;4953568;28;20050;-63
2022/08/15 12:22:33;;;;;;;;;;;26.10;97.00;;;;;;4951098;28;20093;-62
2022/08/15 12:25:03;;;;;;;11.82;9.52;;;26.20;97.80;;;;;;4967629;28;19926;-62
2022/08/15 12:27:30;;;;;;;13.02;10.13;;;26.20;98.10;;;;;;4975751;28;20046;-63
2022/08/15 12:29:57;;;;;;;10.25;8.75;;;26.30;99.50;;;;;;4986729;28;20104;-62
2022/08/15 12:32:24;;;;;;;11.70;9.30;;;26.40;99.90;;;;;;4972412;28;20391;-63
2022/08/15 12:34:54;;;;;;;10.88;9.25;;;26.40;99.90;;;;;;4985451;28;20046;-63
2022/08/15 12:37:24;;;;;;;9.23;8.32;;;26.40;99.20;;;;;;4983951;28;20050;-63
2022/08/15 12:39:53;;;;;;;9.85;8.85;;;26.60;98.50;;;;;;4971924;28;20055;-62
2022/08/15 12:42:25;;;;;;;12.80;8.85;;;26.60;99.10;;;;;;4984435;28;20505;-62
2022/08/15 12:44:54;;;;;;;11.15;8.18;;;26.50;99.30;;;;;;4969337;28;20054;-63
2022/08/15 12:47:23;;;;;;;9.35;8.32;;;26.50;98.80;;;;;;4989292;28;20088;-63
2022/08/15 12:49:50;;;;;;;9.50;8.50;;;26.50;99.60;;;;;;4984444;28;20414;-62
2022/08/15 12:52:19;;;;;;;10.20;8.18;;;26.60;99.50;;;;;;4966629;28;20482;-63
2022/08/15 12:54:46;;;;;;;9.48;8.13;;;26.70;98.70;;;;;;4970689;28;20050;-62
2022/08/15 12:57:13;;;;;;;12.35;8.93;;;27.10;98.30;;;;;;4967387;28;20067;-63
2022/08/15 12:59:42;;;;;;;11.45;9.07;;;27.50;98.00;;;;;;4988034;28;20125;-62
2022/08/15 13:02:11;;;;;;;11.50;9.70;;;28.20;97.50;;;;;;4985433;28;20070;-63
2022/08/15 13:04:37;;;;;;;9.67;8.67;;;28.90;96.50;;;;;;4989160;28;20390;-62